sensor_id;sensor_type;location;lat;lon;timestamp;pressure;altitude;pressure_sealevel;temperature;humidity
19086;BME280;9675;51.538;6.728;2023-03-15T00:01:01;100815.91;;;6.43;100.00
19086;BME280;9675;51.538;6.728;2023-03-15T00:03:29;100817.41;;;6.39;100.00
19086;BME280;9675;51.538;6.728;2023-03-15T00:05:56;100816.09;;;6.33;100.00
19086;BME280;9675;51.538;6.728;2023-03-15T00:08:25;100810.69;;;6.28;100.00
19086;BME280;9675;51.538;6.728;2023-03-15T00:10:52;100827.50;;;6.25;100.00
19086;BME280;9675;51.538;6.728;2023-03-15T00:13:19;100827.50;;;6.25;100.00
19086;BME280;9675;51.538;6.728;2023-03-15T00:15:48;100833.28;;;6.22;100.00
19086;BME280;9675;51.538;6.728;2023-03-15T00:18:17;100837.53;;;6.22;100.00
19086;BME280;9675;51.538;6.728;2023-03-15T00:20:44;100841.78;;;6.21;100.00
19086;BME280;9675;51.538;6.728;2023-03-15T00:23:12;100844.88;;;6.17;100.00
19086;BME280;9675;51.538;6.728;2023-03-15T00:25:43;100845.59;;;6.15;100.00
19086;BME280;9675;51.538;6.728;2023-03-15T00:28:11;100848.03;;;6.13;100.00
19086;BME280;9675;51.538;6.728;2023-03-15T00:30:39;100853.16;;;6.13;100.00
19086;BME280;9675;51.538;6.728;2023-03-15T00:33:06;100849.69;;;6.13;100.00
19086;BME280;9675;51.538;6.728;2023-03-15T00:35:37;100857.19;;;6.10;100.00
19086;BME280;9675;51.538;6.728;2023-03-15T00:38:05;100858.16;;;6.12;100.00
19086;BME280;9675;51.538;6.728;2023-03-15T00:40:32;100856.09;;;6.06;100.00
19086;BME280;9675;51.538;6.728;2023-03-15T00:43:00;100863.53;;;6.03;100.00
19086;BME280;9675;51.538;6.728;2023-03-15T00:45:28;100865.97;;;6.02;100.00
19086;BME280;9675;51.538;6.728;2023-03-15T00:47:55;100870.91;;;5.98;100.00
19086;BME280;9675;51.538;6.728;2023-03-15T00:50:23;100863.22;;;5.98;100.00
19086;BME280;9675;51.538;6.728;2023-03-15T00:52:50;100864.69;;;5.95;100.00
19086;BME280;9675;51.538;6.728;2023-03-15T00:55:18;100872.13;;;5.92;100.00
19086;BME280;9675;51.538;6.728;2023-03-15T00:57:46;100870.34;;;5.91;100.00
19086;BME280;9675;51.538;6.728;2023-03-15T01:00:18;100867.81;;;5.91;100.00
19086;BME280;9675;51.538;6.728;2023-03-15T01:02:48;100865.06;;;5.88;100.00
19086;BME280;9675;51.538;6.728;2023-03-15T01:05:15;100869.03;;;5.84;100.00
19086;BME280;9675;51.538;6.728;2023-03-15T01:07:42;100866.56;;;5.86;100.00
19086;BME280;9675;51.538;6.728;2023-03-15T01:10:13;100869.03;;;5.84;100.00
19086;BME280;9675;51.538;6.728;2023-03-15T01:12:41;100867.38;;;5.85;100.00
19086;BME280;9675;51.538;6.728;2023-03-15T01:15:11;100875.06;;;5.85;100.00
19086;BME280;9675;51.538;6.728;2023-03-15T01:17:41;100881.72;;;5.83;100.00
19086;BME280;9675;51.538;6.728;2023-03-15T01:20:11;100876.59;;;5.83;100.00
19086;BME280;9675;51.538;6.728;2023-03-15T01:22:38;100880.81;;;5.82;100.00
19086;BME280;9675;51.538;6.728;2023-03-15T01:25:06;100877.38;;;5.82;100.00
19086;BME280;9675;51.538;6.728;2023-03-15T01:27:34;100876.41;;;5.80;100.00
19086;BME280;9675;51.538;6.728;2023-03-15T01:30:01;100873.63;;;5.77;100.00
19086;BME280;9675;51.538;6.728;2023-03-15T01:32:28;100870.09;;;5.75;100.00
19086;BME280;9675;51.538;6.728;2023-03-15T01:34:56;100876.94;;;5.76;100.00
19086;BME280;9675;51.538;6.728;2023-03-15T01:37:23;100886.28;;;5.75;100.00
19086;BME280;9675;51.538;6.728;2023-03-15T01:39:51;100880.84;;;5.71;100.00
19086;BME280;9675;51.538;6.728;2023-03-15T01:42:18;100891.00;;;5.69;100.00
19086;BME280;9675;51.538;6.728;2023-03-15T01:44:52;100894.19;;;5.67;100.00
19086;BME280;9675;51.538;6.728;2023-03-15T01:47:20;100892.41;;;5.66;100.00
19086;BME280;9675;51.538;6.728;2023-03-15T01:49:58;100889.09;;;5.67;100.00
19086;BME280;9675;51.538;6.728;2023-03-15T01:52:33;100900.19;;;5.67;100.00
19086;BME280;9675;51.538;6.728;2023-03-15T01:55:06;100903.34;;;5.63;100.00
19086;BME280;9675;51.538;6.728;2023-03-15T01:57:40;100904.09;;;5.62;100.00
19086;BME280;9675;51.538;6.728;2023-03-15T02:00:14;100911.75;;;5.62;100.00
19086;BME280;9675;51.538;6.728;2023-03-15T02:02:50;100910.88;;;5.62;100.00
19086;BME280;9675;51.538;6.728;2023-03-15T02:05:24;100911.66;;;5.61;100.00
19086;BME280;9675;51.538;6.728;2023-03-15T02:07:53;100920.19;;;5.61;100.00
19086;BME280;9675;51.538;6.728;2023-03-15T02:10:28;100916.88;;;5.62;100.00
19086;BME280;9675;51.538;6.728;2023-03-15T02:12:58;100917.53;;;5.60;100.00
19086;BME280;9675;51.538;6.728;2023-03-15T02:15:25;100924.34;;;5.59;100.00
19086;BME280;9675;51.538;6.728;2023-03-15T02:17:53;100925.19;;;5.60;100.00
19086;BME280;9675;51.538;6.728;2023-03-15T02:20:34;100928.44;;;5.57;100.00
19086;BME280;9675;51.538;6.728;2023-03-15T02:23:06;100916.44;;;5.56;100.00
19086;BME280;9675;51.538;6.728;2023-03-15T02:25:42;100928.31;;;5.55;100.00
19086;BME280;9675;51.538;6.728;2023-03-15T02:28:15;100919.75;;;5.55;100.00
19086;BME280;9675;51.538;6.728;2023-03-15T02:30:44;100922.22;;;5.53;100.00
19086;BME280;9675;51.538;6.728;2023-03-15T02:33:19;100921.09;;;5.50;100.00
19086;BME280;9675;51.538;6.728;2023-03-15T02:35:47;100921.09;;;5.50;100.00
19086;BME280;9675;51.538;6.728;2023-03-15T02:38:14;100916.88;;;5.50;100.00
19086;BME280;9675;51.538;6.728;2023-03-15T02:40:42;100923.59;;;5.48;100.00
19086;BME280;9675;51.538;6.728;2023-03-15T02:43:16;100928.69;;;5.48;100.00
19086;BME280;9675;51.538;6.728;2023-03-15T02:45:46;100929.47;;;5.47;100.00
19086;BME280;9675;51.538;6.728;2023-03-15T02:48:14;100935.34;;;5.46;100.00
19086;BME280;9675;51.538;6.728;2023-03-15T02:50:42;100926.66;;;5.44;100.00
19086;BME280;9675;51.538;6.728;2023-03-15T02:53:09;100934.91;;;5.40;100.00
19086;BME280;9675;51.538;6.728;2023-03-15T02:55:37;100930.47;;;5.38;100.00
19086;BME280;9675;51.538;6.728;2023-03-15T02:58:04;100935.47;;;5.36;100.00
19086;BME280;9675;51.538;6.728;2023-03-15T03:00:32;100938.78;;;5.35;100.00
19086;BME280;9675;51.538;6.728;2023-03-15T03:02:59;100943.69;;;5.32;100.00
19086;BME280;9675;51.538;6.728;2023-03-15T03:05:26;100953.78;;;5.31;100.00
19086;BME280;9675;51.538;6.728;2023-03-15T03:07:53;100954.66;;;5.31;100.00
19086;BME280;9675;51.538;6.728;2023-03-15T03:10:21;100953.78;;;5.31;100.00
19086;BME280;9675;51.538;6.728;2023-03-15T03:12:48;100964.13;;;5.32;100.00
19086;BME280;9675;51.538;6.728;2023-03-15T03:15:18;100958.00;;;5.30;100.00
19086;BME280;9675;51.538;6.728;2023-03-15T03:17:48;100964.88;;;5.31;100.00
19086;BME280;9675;51.538;6.728;2023-03-15T03:20:15;100975.09;;;5.31;100.00
19086;BME280;9675;51.538;6.728;2023-03-15T03:22:42;100971.78;;;5.32;100.00
19086;BME280;9675;51.538;6.728;2023-03-15T03:25:11;100979.53;;;5.34;100.00
19086;BME280;9675;51.538;6.728;2023-03-15T03:27:39;100982.88;;;5.33;100.00
19086;BME280;9675;51.538;6.728;2023-03-15T03:30:12;100988.06;;;5.34;100.00
19086;BME280;9675;51.538;6.728;2023-03-15T03:32:40;100995.72;;;5.34;100.00
19086;BME280;9675;51.538;6.728;2023-03-15T03:35:09;101003.19;;;5.31;100.00
19086;BME280;9675;51.538;6.728;2023-03-15T03:37:36;100996.41;;;5.32;100.00
19086;BME280;9675;51.538;6.728;2023-03-15T03:40:04;101001.41;;;5.30;100.00
19086;BME280;9675;51.538;6.728;2023-03-15T03:42:33;101008.28;;;5.31;100.00
19086;BME280;9675;51.538;6.728;2023-03-15T03:45:00;101025.25;;;5.31;100.00
19086;BME280;9675;51.538;6.728;2023-03-15T03:47:27;101023.59;;;5.31;100.00
19086;BME280;9675;51.538;6.728;2023-03-15T03:49:54;101018.38;;;5.30;100.00
19086;BME280;9675;51.538;6.728;2023-03-15T03:52:22;101017.47;;;5.29;100.00
19086;BME280;9675;51.538;6.728;2023-03-15T03:54:49;101027.69;;;5.29;100.00
19086;BME280;9675;51.538;6.728;2023-03-15T03:57:16;101030.16;;;5.28;100.00
19086;BME280;9675;51.538;6.728;2023-03-15T03:59:43;101033.59;;;5.28;100.00
19086;BME280;9675;51.538;6.728;2023-03-15T04:02:10;101037.69;;;5.26;100.00
19086;BME280;9675;51.538;6.728;2023-03-15T04:04:37;101037.69;;;5.26;100.00
19086;BME280;9675;51.538;6.728;2023-03-15T04:07:06;101041.13;;;5.27;100.00
19086;BME280;9675;51.538;6.728;2023-03-15T04:09:34;101051.22;;;5.25;100.00
19086;BME280;9675;51.538;6.728;2023-03-15T04:12:02;101052.00;;;5.24;100.00
19086;BME280;9675;51.538;6.728;2023-03-15T04:14:29;101047.69;;;5.23;100.00
19086;BME280;9675;51.538;6.728;2023-03-15T04:16:56;101058.69;;;5.22;100.00
19086;BME280;9675;51.538;6.728;2023-03-15T04:19:24;101062.00;;;5.21;100.00
19086;BME280;9675;51.538;6.728;2023-03-15T04:21:51;101060.34;;;5.22;100.00
19086;BME280;9675;51.538;6.728;2023-03-15T04:24:18;101059.44;;;5.21;100.00
19086;BME280;9675;51.538;6.728;2023-03-15T04:26:46;101060.22;;;5.20;100.00
19086;BME280;9675;51.538;6.728;2023-03-15T04:29:13;101067.88;;;5.20;100.00
19086;BME280;9675;51.538;6.728;2023-03-15T04:31:40;101068.63;;;5.19;100.00
19086;BME280;9675;51.538;6.728;2023-03-15T04:34:08;101072.09;;;5.20;100.00
19086;BME280;9675;51.538;6.728;2023-03-15T04:36:35;101070.22;;;5.17;100.00
19086;BME280;9675;51.538;6.728;2023-03-15T04:39:03;101072.00;;;5.18;100.00
19086;BME280;9675;51.538;6.728;2023-03-15T04:41:32;101067.66;;;5.17;100.00
19086;BME280;9675;51.538;6.728;2023-03-15T04:44:02;101067.66;;;5.17;100.00
19086;BME280;9675;51.538;6.728;2023-03-15T04:46:30;101062.56;;;5.17;100.00
19086;BME280;9675;51.538;6.728;2023-03-15T04:48:57;101076.97;;;5.17;100.00
19086;BME280;9675;51.538;6.728;2023-03-15T04:51:24;101074.31;;;5.15;100.00
19086;BME280;9675;51.538;6.728;2023-03-15T04:53:52;101075.84;;;5.13;100.00
19086;BME280;9675;51.538;6.728;2023-03-15T04:56:19;101075.84;;;5.13;100.00
19086;BME280;9675;51.538;6.728;2023-03-15T04:58:46;101076.50;;;5.10;100.00
19086;BME280;9675;51.538;6.728;2023-03-15T05:01:15;101077.16;;;5.08;100.00
19086;BME280;9675;51.538;6.728;2023-03-15T05:03:42;101088.94;;;5.06;100.00
19086;BME280;9675;51.538;6.728;2023-03-15T05:06:09;101088.03;;;5.05;100.00
19086;BME280;9675;51.538;6.728;2023-03-15T05:08:36;101094.03;;;5.06;100.00
19086;BME280;9675;51.538;6.728;2023-03-15T05:11:04;101091.47;;;5.06;100.00
19086;BME280;9675;51.538;6.728;2023-03-15T05:13:31;101100.81;;;5.05;100.00
19086;BME280;9675;51.538;6.728;2023-03-15T05:15:58;101104.25;;;5.06;100.00
19086;BME280;9675;51.538;6.728;2023-03-15T05:18:27;101115.97;;;5.04;100.00
19086;BME280;9675;51.538;6.728;2023-03-15T05:20:54;101125.97;;;5.01;100.00
19086;BME280;9675;51.538;6.728;2023-03-15T05:23:24;101131.84;;;5.00;100.00
19086;BME280;9675;51.538;6.728;2023-03-15T05:25:54;101127.50;;;4.99;100.00
19086;BME280;9675;51.538;6.728;2023-03-15T05:28:22;101125.72;;;4.98;100.00
19086;BME280;9675;51.538;6.728;2023-03-15T05:30:50;101134.19;;;4.97;100.00
19086;BME280;9675;51.538;6.728;2023-03-15T05:33:18;101132.41;;;4.96;100.00
19086;BME280;9675;51.538;6.728;2023-03-15T05:35:47;101145.91;;;4.95;100.00
19086;BME280;9675;51.538;6.728;2023-03-15T05:38:14;101148.47;;;4.95;100.00
19086;BME280;9675;51.538;6.728;2023-03-15T05:40:43;101147.56;;;4.94;100.00
19086;BME280;9675;51.538;6.728;2023-03-15T05:43:12;101152.69;;;4.94;100.00
19086;BME280;9675;51.538;6.728;2023-03-15T05:45:39;101162.88;;;4.94;100.00
19086;BME280;9675;51.538;6.728;2023-03-15T05:48:09;101170.53;;;4.94;100.00
19086;BME280;9675;51.538;6.728;2023-03-15T05:50:36;101173.63;;;4.90;100.00
19086;BME280;9675;51.538;6.728;2023-03-15T05:53:04;101177.84;;;4.90;100.00
19086;BME280;9675;51.538;6.728;2023-03-15T05:55:31;101186.25;;;4.89;100.00
19086;BME280;9675;51.538;6.728;2023-03-15T05:57:58;101187.81;;;4.87;100.00
19086;BME280;9675;51.538;6.728;2023-03-15T06:00:25;101183.59;;;4.87;100.00
19086;BME280;9675;51.538;6.728;2023-03-15T06:02:52;101192.13;;;4.88;100.00
19086;BME280;9675;51.538;6.728;2023-03-15T06:05:19;101192.25;;;4.89;100.00
19086;BME280;9675;51.538;6.728;2023-03-15T06:07:47;101196.47;;;4.89;100.00
19086;BME280;9675;51.538;6.728;2023-03-15T06:10:15;101192.13;;;4.88;100.00
19086;BME280;9675;51.538;6.728;2023-03-15T06:12:42;101198.91;;;4.87;100.00
19086;BME280;9675;51.538;6.728;2023-03-15T06:15:10;101201.34;;;4.86;100.00
19086;BME280;9675;51.538;6.728;2023-03-15T06:17:37;101205.56;;;4.85;100.00
19086;BME280;9675;51.538;6.728;2023-03-15T06:20:06;101200.31;;;4.84;100.00
19086;BME280;9675;51.538;6.728;2023-03-15T06:22:33;101207.34;;;4.86;100.00
19086;BME280;9675;51.538;6.728;2023-03-15T06:25:00;101212.53;;;4.88;100.00
19086;BME280;9675;51.538;6.728;2023-03-15T06:27:29;101214.88;;;4.85;100.00
19086;BME280;9675;51.538;6.728;2023-03-15T06:29:56;101221.75;;;4.86;100.00
19086;BME280;9675;51.538;6.728;2023-03-15T06:32:24;101228.38;;;4.84;100.00
19086;BME280;9675;51.538;6.728;2023-03-15T06:34:51;101238.72;;;4.85;100.00
19086;BME280;9675;51.538;6.728;2023-03-15T06:37:18;101247.28;;;4.86;100.00
19086;BME280;9675;51.538;6.728;2023-03-15T06:39:46;101240.38;;;4.85;100.00
19086;BME280;9675;51.538;6.728;2023-03-15T06:42:13;101240.50;;;4.86;100.00
19086;BME280;9675;51.538;6.728;2023-03-15T06:44:42;101249.81;;;4.86;100.00
19086;BME280;9675;51.538;6.728;2023-03-15T06:47:10;101252.38;;;4.86;100.00
19086;BME280;9675;51.538;6.728;2023-03-15T06:49:37;101259.00;;;4.84;100.00
19086;BME280;9675;51.538;6.728;2023-03-15T06:52:06;101251.34;;;4.84;100.00
19086;BME280;9675;51.538;6.728;2023-03-15T06:54:36;101259.91;;;4.84;100.00
19086;BME280;9675;51.538;6.728;2023-03-15T06:57:09;101262.44;;;4.84;100.00
19086;BME280;9675;51.538;6.728;2023-03-15T06:59:39;101267.41;;;4.83;100.00
19086;BME280;9675;51.538;6.728;2023-03-15T07:02:14;101277.63;;;4.83;100.00
19086;BME280;9675;51.538;6.728;2023-03-15T07:04:41;101277.63;;;4.83;100.00
19086;BME280;9675;51.538;6.728;2023-03-15T07:07:10;101279.41;;;4.84;100.00
19086;BME280;9675;51.538;6.728;2023-03-15T07:09:37;101283.63;;;4.83;100.00
19086;BME280;9675;51.538;6.728;2023-03-15T07:12:05;101287.97;;;4.84;100.00
19086;BME280;9675;51.538;6.728;2023-03-15T07:14:45;101290.38;;;4.83;100.00
19086;BME280;9675;51.538;6.728;2023-03-15T07:17:14;101291.28;;;4.83;100.00
19086;BME280;9675;51.538;6.728;2023-03-15T07:19:41;101298.03;;;4.83;100.00
19086;BME280;9675;51.538;6.728;2023-03-15T07:22:09;101301.59;;;4.85;100.00
19086;BME280;9675;51.538;6.728;2023-03-15T07:24:36;101307.59;;;4.85;100.00
19086;BME280;9675;51.538;6.728;2023-03-15T07:27:03;101311.06;;;4.86;100.00
19086;BME280;9675;51.538;6.728;2023-03-15T07:29:31;101315.25;;;4.85;100.00
19086;BME280;9675;51.538;6.728;2023-03-15T07:31:58;101317.03;;;4.86;100.00
19086;BME280;9675;51.538;6.728;2023-03-15T07:34:27;101317.16;;;4.88;100.00
19086;BME280;9675;51.538;6.728;2023-03-15T07:36:54;101330.69;;;4.87;100.00
19086;BME280;9675;51.538;6.728;2023-03-15T07:39:21;101322.03;;;4.85;100.00
19086;BME280;9675;51.538;6.728;2023-03-15T07:41:51;101330.44;;;4.84;100.00
19086;BME280;9675;51.538;6.728;2023-03-15T07:44:18;101348.56;;;4.87;100.00
19086;BME280;9675;51.538;6.728;2023-03-15T07:46:45;101356.22;;;4.87;100.00
19086;BME280;9675;51.538;6.728;2023-03-15T07:49:13;101358.84;;;4.88;100.00
19086;BME280;9675;51.538;6.728;2023-03-15T07:51:41;101357.19;;;4.89;100.00
19086;BME280;9675;51.538;6.728;2023-03-15T07:54:08;101362.44;;;4.90;100.00
19086;BME280;9675;51.538;6.728;2023-03-15T07:56:36;101375.31;;;4.92;100.00
19086;BME280;9675;51.538;6.728;2023-03-15T07:59:03;101376.19;;;4.92;100.00
19086;BME280;9675;51.538;6.728;2023-03-15T08:01:30;101384.88;;;4.94;100.00
19086;BME280;9675;51.538;6.728;2023-03-15T08:03:57;101393.28;;;4.93;100.00
19086;BME280;9675;51.538;6.728;2023-03-15T08:06:24;101391.50;;;4.92;100.00
19086;BME280;9675;51.538;6.728;2023-03-15T08:08:52;101395.06;;;4.94;100.00
19086;BME280;9675;51.538;6.728;2023-03-15T08:11:19;101393.41;;;4.95;100.00
19086;BME280;9675;51.538;6.728;2023-03-15T08:13:46;101400.94;;;4.93;100.00
19086;BME280;9675;51.538;6.728;2023-03-15T08:16:14;101406.94;;;4.94;100.00
19086;BME280;9675;51.538;6.728;2023-03-15T08:18:41;101401.97;;;4.95;100.00
19086;BME280;9675;51.538;6.728;2023-03-15T08:21:08;101399.56;;;4.97;100.00
19086;BME280;9675;51.538;6.728;2023-03-15T08:23:35;101408.97;;;4.98;100.00
19086;BME280;9675;51.538;6.728;2023-03-15T08:26:04;101408.19;;;4.99;100.00
19086;BME280;9675;51.538;6.728;2023-03-15T08:28:31;101412.41;;;4.98;100.00
19086;BME280;9675;51.538;6.728;2023-03-15T08:30:58;101417.50;;;4.98;100.00
19086;BME280;9675;51.538;6.728;2023-03-15T08:33:25;101418.41;;;4.99;100.00
19086;BME280;9675;51.538;6.728;2023-03-15T08:35:54;101427.09;;;5.01;100.00
19086;BME280;9675;51.538;6.728;2023-03-15T08:38:21;101422.50;;;5.07;100.00
19086;BME280;9675;51.538;6.728;2023-03-15T08:40:48;101441.63;;;5.12;100.00
19086;BME280;9675;51.538;6.728;2023-03-15T08:43:17;101435.97;;;5.16;100.00
19086;BME280;9675;51.538;6.728;2023-03-15T08:45:44;101444.00;;;5.21;100.00
19086;BME280;9675;51.538;6.728;2023-03-15T08:48:11;101451.03;;;5.23;100.00
19086;BME280;9675;51.538;6.728;2023-03-15T08:50:39;101454.84;;;5.28;100.00
19086;BME280;9675;51.538;6.728;2023-03-15T08:53:06;101460.41;;;5.34;100.00
19086;BME280;9675;51.538;6.728;2023-03-15T08:55:33;101467.56;;;5.38;100.00
19086;BME280;9675;51.538;6.728;2023-03-15T08:58:02;101466.28;;;5.43;100.00
19086;BME280;9675;51.538;6.728;2023-03-15T09:00:30;101469.81;;;5.45;100.00
19086;BME280;9675;51.538;6.728;2023-03-15T09:02:58;101470.84;;;5.47;100.00
19086;BME280;9675;51.538;6.728;2023-03-15T09:05:25;101477.09;;;5.51;100.00
19086;BME280;9675;51.538;6.728;2023-03-15T09:07:52;101469.69;;;5.54;100.00
19086;BME280;9675;51.538;6.728;2023-03-15T09:10:19;101470.69;;;5.56;100.00
19086;BME280;9675;51.538;6.728;2023-03-15T09:12:49;101475.91;;;5.57;100.00
19086;BME280;9675;51.538;6.728;2023-03-15T09:15:18;101476.16;;;5.61;100.00
19086;BME280;9675;51.538;6.728;2023-03-15T09:17:48;101489.94;;;5.63;100.00
19086;BME280;9675;51.538;6.728;2023-03-15T09:20:16;101486.72;;;5.65;100.00
19086;BME280;9675;51.538;6.728;2023-03-15T09:22:50;101482.50;;;5.66;100.00
19086;BME280;9675;51.538;6.728;2023-03-15T09:25:18;101485.31;;;5.69;100.00
19086;BME280;9675;51.538;6.728;2023-03-15T09:27:45;101489.53;;;5.68;100.00
19086;BME280;9675;51.538;6.728;2023-03-15T09:30:13;101495.78;;;5.72;100.00
19086;BME280;9675;51.538;6.728;2023-03-15T09:32:41;101502.66;;;5.73;100.00
19086;BME280;9675;51.538;6.728;2023-03-15T09:35:13;101496.91;;;5.75;100.00
19086;BME280;9675;51.538;6.728;2023-03-15T09:37:41;101503.16;;;5.79;100.00
19086;BME280;9675;51.538;6.728;2023-03-15T09:40:17;101510.16;;;5.81;100.00
19086;BME280;9675;51.538;6.728;2023-03-15T09:43:03;101516.53;;;5.86;100.00
19086;BME280;9675;51.538;6.728;2023-03-15T09:46:09;101513.50;;;5.90;100.00
19086;BME280;9675;51.538;6.728;2023-03-15T09:48:50;101513.06;;;5.96;100.00
19086;BME280;9675;51.538;6.728;2023-03-15T09:51:35;101510.97;;;6.02;100.00
19086;BME280;9675;51.538;6.728;2023-03-15T09:54:10;101502.00;;;6.07;100.00
19086;BME280;9675;51.538;6.728;2023-03-15T09:56:42;101501.03;;;6.17;100.00
19086;BME280;9675;51.538;6.728;2023-03-15T09:59:12;101504.22;;;6.24;100.00
19086;BME280;9675;51.538;6.728;2023-03-15T10:01:42;101508.22;;;6.32;100.00
19086;BME280;9675;51.538;6.728;2023-03-15T10:04:18;101492.81;;;6.43;100.00
19086;BME280;9675;51.538;6.728;2023-03-15T10:06:55;101496.56;;;6.58;100.00
19086;BME280;9675;51.538;6.728;2023-03-15T10:09:25;101501.03;;;6.72;100.00
19086;BME280;9675;51.538;6.728;2023-03-15T10:12:02;101506.06;;;6.82;100.00
19086;BME280;9675;51.538;6.728;2023-03-15T10:14:56;101496.50;;;6.91;100.00
19086;BME280;9675;51.538;6.728;2023-03-15T10:17:35;101498.19;;;7.02;100.00
19086;BME280;9675;51.538;6.728;2023-03-15T10:20:12;101504.13;;;7.13;100.00
19086;BME280;9675;51.538;6.728;2023-03-15T10:22:53;101501.56;;;7.24;100.00
19086;BME280;9675;51.538;6.728;2023-03-15T10:25:25;101512.81;;;7.38;100.00
19086;BME280;9675;51.538;6.728;2023-03-15T10:27:56;101504.34;;;7.51;100.00
19086;BME280;9675;51.538;6.728;2023-03-15T10:30:27;101505.00;;;7.60;100.00
19086;BME280;9675;51.538;6.728;2023-03-15T10:33:00;101509.44;;;7.74;100.00
19086;BME280;9675;51.538;6.728;2023-03-15T10:35:28;101493.91;;;7.84;100.00
19086;BME280;9675;51.538;6.728;2023-03-15T10:37:58;101501.72;;;7.97;100.00
19086;BME280;9675;51.538;6.728;2023-03-15T10:40:42;101504.13;;;8.07;100.00
19086;BME280;9675;51.538;6.728;2023-03-15T10:43:18;101510.88;;;8.19;100.00
19086;BME280;9675;51.538;6.728;2023-03-15T10:46:00;101505.41;;;8.26;100.00
19086;BME280;9675;51.538;6.728;2023-03-15T10:48:30;101507.72;;;8.34;100.00
19086;BME280;9675;51.538;6.728;2023-03-15T10:51:03;101511.84;;;8.44;100.00
19086;BME280;9675;51.538;6.728;2023-03-15T10:53:32;101503.69;;;8.49;100.00
19086;BME280;9675;51.538;6.728;2023-03-15T10:56:04;101508.53;;;8.58;100.00
19086;BME280;9675;51.538;6.728;2023-03-15T10:58:40;101510.75;;;8.65;100.00
19086;BME280;9675;51.538;6.728;2023-03-15T11:01:13;101516.25;;;8.71;100.00
19086;BME280;9675;51.538;6.728;2023-03-15T11:04:08;101509.19;;;8.80;100.00
19086;BME280;9675;51.538;6.728;2023-03-15T11:06:42;101510.59;;;8.88;100.00
19086;BME280;9675;51.538;6.728;2023-03-15T11:09:14;101519.91;;;9.00;100.00
19086;BME280;9675;51.538;6.728;2023-03-15T11:11:58;101517.03;;;9.08;99.92
19086;BME280;9675;51.538;6.728;2023-03-15T11:14:32;101516.78;;;9.17;98.03
19086;BME280;9675;51.538;6.728;2023-03-15T11:17:02;101521.72;;;9.27;95.63
19086;BME280;9675;51.538;6.728;2023-03-15T11:19:35;101523.22;;;9.36;97.27
19086;BME280;9675;51.538;6.728;2023-03-15T11:22:11;101527.94;;;9.44;95.96
19086;BME280;9675;51.538;6.728;2023-03-15T11:24:40;101532.50;;;9.48;90.46
19086;BME280;9675;51.538;6.728;2023-03-15T11:27:13;101533.47;;;9.50;85.02
19086;BME280;9675;51.538;6.728;2023-03-15T11:29:46;101535.16;;;9.62;81.08
19086;BME280;9675;51.538;6.728;2023-03-15T11:32:18;101538.50;;;9.74;79.16
19086;BME280;9675;51.538;6.728;2023-03-15T11:34:54;101544.63;;;9.90;80.62
19086;BME280;9675;51.538;6.728;2023-03-15T11:37:27;101540.06;;;9.99;80.85
19086;BME280;9675;51.538;6.728;2023-03-15T11:40:02;101543.84;;;10.04;75.65
19086;BME280;9675;51.538;6.728;2023-03-15T11:42:35;101537.47;;;10.12;73.24
19086;BME280;9675;51.538;6.728;2023-03-15T11:45:14;101548.34;;;10.21;72.63
19086;BME280;9675;51.538;6.728;2023-03-15T11:47:49;101544.69;;;10.31;71.77
19086;BME280;9675;51.538;6.728;2023-03-15T11:50:18;101545.25;;;10.40;70.06
19086;BME280;9675;51.538;6.728;2023-03-15T11:52:49;101541.44;;;10.48;67.62
19086;BME280;9675;51.538;6.728;2023-03-15T11:55:22;101541.19;;;10.58;63.93
19086;BME280;9675;51.538;6.728;2023-03-15T11:57:50;101543.50;;;10.81;63.96
19086;BME280;9675;51.538;6.728;2023-03-15T12:00:49;101541.72;;;10.95;64.03
19086;BME280;9675;51.538;6.728;2023-03-15T12:03:37;101544.81;;;11.04;63.01
19086;BME280;9675;51.538;6.728;2023-03-15T12:06:37;101541.28;;;11.17;62.54
19086;BME280;9675;51.538;6.728;2023-03-15T12:09:40;101542.06;;;11.30;61.58
19086;BME280;9675;51.538;6.728;2023-03-15T12:12:37;101532.56;;;11.44;61.47
19086;BME280;9675;51.538;6.728;2023-03-15T12:17:58;101541.59;;;11.67;60.74
19086;BME280;9675;51.538;6.728;2023-03-15T12:20:33;101537.25;;;11.80;58.85
19086;BME280;9675;51.538;6.728;2023-03-15T12:23:21;101539.78;;;11.95;58.54
19086;BME280;9675;51.538;6.728;2023-03-15T12:25:54;101544.75;;;12.07;59.81
19086;BME280;9675;51.538;6.728;2023-03-15T12:28:27;101537.25;;;12.11;58.93
19086;BME280;9675;51.538;6.728;2023-03-15T12:30:59;101532.78;;;12.09;58.22
19086;BME280;9675;51.538;6.728;2023-03-15T12:33:30;101536.44;;;12.12;57.12
19086;BME280;9675;51.538;6.728;2023-03-15T12:36:00;101528.84;;;12.15;57.45
19086;BME280;9675;51.538;6.728;2023-03-15T12:38:35;101530.97;;;12.22;56.53
19086;BME280;9675;51.538;6.728;2023-03-15T12:41:07;101531.91;;;12.24;55.20
19086;BME280;9675;51.538;6.728;2023-03-15T12:43:39;101523.94;;;12.36;56.18
19086;BME280;9675;51.538;6.728;2023-03-15T12:46:53;101534.03;;;12.48;53.55
19086;BME280;9675;51.538;6.728;2023-03-15T12:49:32;101531.94;;;12.57;54.20
19086;BME280;9675;51.538;6.728;2023-03-15T12:52:02;101537.25;;;12.60;53.34
19086;BME280;9675;51.538;6.728;2023-03-15T12:54:40;101532.19;;;12.61;54.79
19086;BME280;9675;51.538;6.728;2023-03-15T12:57:12;101536.34;;;12.59;54.43
19086;BME280;9675;51.538;6.728;2023-03-15T12:59:49;101533.78;;;12.59;55.10
19086;BME280;9675;51.538;6.728;2023-03-15T13:02:34;101535.66;;;12.62;54.54
19086;BME280;9675;51.538;6.728;2023-03-15T13:05:21;101532.09;;;12.60;53.05
19086;BME280;9675;51.538;6.728;2023-03-15T13:08:04;101535.56;;;12.60;54.09
19086;BME280;9675;51.538;6.728;2023-03-15T13:10:37;101534.84;;;12.63;53.21
19086;BME280;9675;51.538;6.728;2023-03-15T13:13:20;101526.75;;;12.73;54.50
19086;BME280;9675;51.538;6.728;2023-03-15T13:16:06;101527.09;;;12.79;53.22
19086;BME280;9675;51.538;6.728;2023-03-15T13:18:49;101526.09;;;12.77;51.66
19086;BME280;9675;51.538;6.728;2023-03-15T13:21:25;101523.38;;;12.74;51.50